Time;durP1;ratioP1;P1;durP2;ratioP2;P2;SDS_P1;SDS_P2;PMS_P1;PMS_P2;Temp;Humidity;BMP_temperature;BMP_pressure;BME280_temperature;BME280_humidity;BME280_pressure;Samples;Min_cycle;Max_cycle;Signal;HPM_P1;HPM_P2
2021/03/22 00:05:43;;;;;;;13.97;11.03;;;;;;;2.02;80.64;99006.63;4370698;22;21597668;-78
2021/03/22 00:13:18;;;;;;;12.23;10.07;;;;;;;2.18;80.04;99027.59;5172329;22;20213;-79
2021/03/22 00:17:18;;;;;;;13.23;10.30;;;;;;;2.06;80.08;98978.81;5086994;22;20320;-80
2021/03/22 00:21:30;;;;;;;13.77;11.10;;;;;;;2.23;80.02;99019.97;5106349;23;20228;-78
2021/03/22 00:26:04;;;;;;;14.60;11.37;;;;;;;2.24;79.64;99023.44;5098981;28;20216;-79
2021/03/22 00:29:53;;;;;;;15.37;11.20;;;;;;;2.30;79.49;99020.03;5126721;22;20247;-79
2021/03/22 00:34:14;;;;;;;13.67;10.90;;;;;;;2.34;78.84;99026.59;5116058;22;20203;-79
2021/03/22 00:38:33;;;;;;;16.10;11.37;;;;;;;2.34;79.07;99030.06;5101889;22;20255;-79
2021/03/22 00:42:53;;;;;;;14.80;11.03;;;;;;;2.34;79.08;99040.66;5091534;23;20516;-79
2021/03/22 00:51:18;;;;;;;15.10;11.63;;;;;;;2.32;79.32;99023.34;5163000;22;20236;-78
2021/03/22 00:55:04;;;;;;;13.73;10.90;;;;;;;2.31;79.08;99022.50;5064766;28;20221;-79
2021/03/22 00:58:41;;;;;;;13.90;11.03;;;;;;;2.37;78.96;99034.19;5080021;22;20252;31
2021/03/22 01:06:32;;;;;;;13.67;11.67;;;;;;;2.38;79.08;99020.78;5161952;22;20233;-79
2021/03/22 01:13:18;;;;;;;13.77;11.20;;;;;;;2.39;79.56;99030.34;5092480;23;20245;-78
2021/03/22 01:17:45;;;;;;;14.27;10.97;;;;;;;2.39;79.08;99027.72;5051940;23;20222;-77
2021/03/22 01:21:55;;;;;;;15.63;11.53;;;;;;;2.37;79.33;99018.31;5209208;23;20222;-77
2021/03/22 01:29:46;;;;;;;13.50;11.23;;;;;;;2.41;78.82;99020.44;5045075;23;20219;-78
2021/03/22 01:33:43;;;;;;;14.17;11.10;;;;;;;2.46;79.10;99022.53;4921934;29;20207;-78
2021/03/22 01:37:41;;;;;;;14.87;11.13;;;;;;;2.34;79.46;99021.31;4891430;29;20205;-78
2021/03/22 01:53:31;;;;;;;14.20;11.40;;;;;;;2.29;80.63;99021.84;5077695;28;20181;-78
2021/03/22 01:57:41;;;;;;;14.73;11.63;;;;;;;2.33;80.12;99020.53;5264122;22;20254;-78
2021/03/22 02:02:08;;;;;;;12.13;9.60;;;;;;;2.27;80.25;99021.25;5056653;22;20641;-78
2021/03/22 02:06:25;;;;;;;12.83;9.90;;;;;;;2.11;80.39;99000.25;5252355;22;20249;-78
2021/03/22 02:10:09;;;;;;;12.27;10.17;;;;;;;2.32;79.15;99029.44;5100610;22;20682;-79
2021/03/22 02:18:18;;;;;;;13.60;9.43;;;;;;;2.34;78.85;99037.19;5044905;23;20229;-79
2021/03/22 02:22:13;;;;;;;10.33;9.23;;;;;;;2.34;78.84;99040.66;5066615;23;20221;-79
2021/03/22 02:25:59;;;;;;;13.47;9.33;;;;;;;2.33;79.02;99048.78;5055730;28;20253;-78
2021/03/22 02:30:04;;;;;;;12.00;8.77;;;;;;;2.30;78.66;99054.41;5231240;22;20209;-80
2021/03/22 02:34:04;;;;;;;11.97;8.80;;;;;;;2.31;78.64;99046.31;5247954;22;20232;-79
2021/03/22 02:38:09;;;;;;;11.53;8.67;;;;;;;2.34;78.55;99060.97;5156780;22;20247;-78
2021/03/22 02:42:27;;;;;;;10.50;9.07;;;;;;;2.26;78.83;99053.94;5148605;23;20217;-78
2021/03/22 02:46:06;;;;;;;12.23;9.23;;;;;;;2.11;77.98;99024.03;5066412;23;20209;-79
2021/03/22 02:49:51;;;;;;;12.30;9.60;;;;;;;1.97;78.38;99012.44;5068118;28;20284;-78
2021/03/22 02:53:23;;;;;;;12.33;8.73;;;;;;;2.15;78.26;99063.13;5117603;23;20249;-78
2021/03/22 03:01:35;;;;;;;11.27;9.07;;;;;;;1.90;79.38;99059.09;4895464;29;20576;-78
2021/03/22 03:05:10;;;;;;;13.27;8.77;;;;;;;1.71;79.95;99056.91;4900333;29;20220;-78
2021/03/22 03:09:43;;;;;;;13.03;9.00;;;;;;;1.82;78.89;99066.25;5038858;22;20281;-78
2021/03/22 03:13:26;;;;;;;11.37;8.70;;;;;;;1.64;79.84;99066.53;5074751;28;20221;-78
2021/03/22 03:17:00;;;;;;;10.40;8.87;;;;;;;1.49;80.61;99069.13;5070170;28;20205;-77
2021/03/22 03:20:32;;;;;;;10.00;8.60;;;;;;;1.45;80.96;99074.91;5073069;23;20214;-78
2021/03/22 03:27:35;;;;;;;10.57;7.63;;;;;;;1.48;79.85;99085.97;5045357;28;20299;-78
2021/03/22 03:31:09;;;;;;;10.40;7.83;;;;;;;1.33;79.88;99066.59;5039624;23;20233;-78
2021/03/22 03:34:52;;;;;;;9.43;7.37;;;;;;;1.26;80.00;99068.28;5045694;23;20218;-78
2021/03/22 03:42:39;;;;;;;8.53;5.70;;;;;;;1.24;78.49;99084.28;5031559;23;20228;-78
2021/03/22 03:50:58;;;;;;;7.10;4.60;;;;;;;1.17;77.66;99087.78;5037692;23;20256;-79
2021/03/22 03:54:57;;;;;;;6.87;5.20;;;;;;;1.14;77.94;99098.69;5013251;23;20218;-81
2021/03/22 03:58:33;;;;;;;7.90;4.60;;;;;;;1.07;78.10;99098.56;5097029;23;20253;-80
2021/03/22 04:02:19;;;;;;;6.67;4.60;;;;;;;0.99;78.44;99100.38;5058156;23;20232;-79
2021/03/22 04:06:25;;;;;;;6.87;4.77;;;;;;;1.01;78.25;99111.59;4994350;28;20273;-80
2021/03/22 04:10:16;;;;;;;7.10;4.03;;;;;;;0.74;78.69;99089.13;5048257;23;20238;-79
2021/03/22 04:13:41;;;;;;;5.83;4.40;;;;;;;0.87;78.41;99110.50;5153106;23;20222;-78
2021/03/22 04:20:59;;;;;;;11.60;5.10;;;;;;;0.65;78.00;99090.16;5211574;23;20272;-78
2021/03/22 04:25:35;;;;;;;5.80;3.43;;;;;;;0.59;78.15;99094.28;5190027;23;20316;-79
2021/03/22 04:29:27;;;;;;;4.70;3.27;;;;;;;0.85;77.20;99118.59;5064148;23;20233;-78
2021/03/22 04:33:35;;;;;;;5.30;3.40;;;;;;;0.41;76.54;99052.31;5078111;22;20221;-80
2021/03/22 04:37:08;;;;;;;5.77;3.17;;;;;;;0.84;77.04;99121.41;5499224;23;20248;-78
2021/03/22 04:40:43;;;;;;;5.90;3.53;;;;;;;0.72;77.41;99126.22;5032262;28;20232;-78
2021/03/22 04:45:00;;;;;;;5.27;3.20;;;;;;;0.78;76.95;99130.00;4921190;29;20283;-78
2021/03/22 04:48:54;;;;;;;6.23;3.40;;;;;;;0.78;77.14;99137.91;5296120;22;20213;-78
2021/03/22 04:52:43;;;;;;;4.53;3.20;;;;;;;0.80;77.02;99142.00;5069126;28;20205;-79
2021/03/22 04:56:59;;;;;;;3.83;2.90;;;;;;;0.83;76.55;99138.22;5053845;22;20224;-79
2021/03/22 05:01:25;;;;;;;5.93;3.40;;;;;;;0.57;76.73;99116.50;5125381;22;20245;-79
2021/03/22 05:05:32;;;;;;;4.27;2.57;;;;;;;0.71;76.07;99132.47;5081770;23;20213;-78
2021/03/22 05:10:03;;;;;;;4.83;2.50;;;;;;;0.87;76.38;99152.72;4986122;23;20229;-78
2021/03/22 05:14:26;;;;;;;3.80;2.40;;;;;;;0.57;76.18;99112.06;5073445;28;20225;-78
2021/03/22 05:17:30;;;;;;;4.73;2.50;;;;;;;0.96;75.74;99159.59;4998411;28;20214;-79
2021/03/22 05:21:40;;;;;;;5.23;2.83;;;;;;;0.94;75.89;99151.03;5062568;23;20251;-78
2021/03/22 05:26:01;;;;;;;3.83;2.33;;;;;;;0.95;74.72;99160.59;5105286;22;20216;-79
2021/03/22 05:29:40;;;;;;;4.60;2.07;;;;;;;0.98;74.27;99130.44;5144822;22;20220;-77
2021/03/22 05:33:06;;;;;;;4.23;1.90;;;;;;;1.32;72.97;99173.97;5147084;23;20231;-78
2021/03/22 05:36:38;;;;;;;4.27;1.90;;;;;;;1.29;72.75;99152.38;5073653;23;20228;-79
2021/03/22 05:40:46;;;;;;;3.70;2.00;;;;;;;1.60;71.35;99169.06;5195615;22;20291;-78
2021/03/22 05:48:03;;;;;;;3.00;1.60;;;;;;;1.97;70.18;99183.34;5107485;22;20239;-78
2021/03/22 05:52:09;;;;;;;3.53;1.70;;;;;;;2.08;69.23;99191.72;5264537;22;20218;-79
2021/03/22 05:56:30;;;;;;;2.93;1.90;;;;;;;1.92;68.90;99136.31;5167974;22;20224;-79
2021/03/22 06:00:58;;;;;;;2.83;1.77;;;;;;;2.39;67.16;99190.81;5042661;28;20217;-80
2021/03/22 06:08:42;;;;;;;2.23;1.33;;;;;;;2.69;65.48;99199.63;5080842;23;20235;-79
2021/03/22 06:16:40;;;;;;;2.07;1.37;;;;;;;2.85;64.04;99184.41;5029172;28;20186;-80
2021/03/22 06:20:25;;;;;;;3.20;1.70;;;;;;;2.94;63.84;99169.31;5038014;23;20231;-79
2021/03/22 06:24:14;;;;;;;3.40;1.60;;;;;;;3.22;62.83;99196.75;5014606;28;20253;-79
2021/03/22 06:28:25;;;;;;;4.33;1.63;;;;;;;3.31;62.04;99219.47;5013024;28;20278;-79
2021/03/22 06:31:44;;;;;;;2.43;1.20;;;;;;;3.37;62.48;99225.88;5015838;28;20199;-79
2021/03/22 06:35:36;;;;;;;3.40;1.70;;;;;;;3.45;63.74;99236.41;5093372;22;20220;-79
2021/03/22 06:39:25;;;;;;;2.47;1.37;;;;;;;3.41;62.24;99227.16;5262463;22;20238;-79
2021/03/22 06:46:39;;;;;;;3.83;1.60;;;;;;;3.15;62.49;99210.91;5096334;28;20232;-80
2021/03/22 06:50:30;;;;;;;4.23;1.97;;;;;;;3.48;63.20;99243.97;5141627;22;20240;-79
2021/03/22 06:54:56;;;;;;;3.37;1.90;;;;;;;3.61;63.47;99262.69;5064126;23;20236;-79
2021/03/22 06:58:24;;;;;;;2.77;1.77;;;;;;;3.61;62.82;99262.69;5072193;22;20188;-79
2021/03/22 07:02:02;;;;;;;2.63;1.70;;;;;;;3.62;62.81;99260.84;5171080;23;20259;-78
2021/03/22 07:05:57;;;;;;;3.07;2.10;;;;;;;3.61;62.83;99273.28;5030452;23;20231;-79
2021/03/22 07:10:03;;;;;;;3.23;1.70;;;;;;;3.44;62.76;99262.06;5219324;22;20217;-79
2021/03/22 07:14:06;;;;;;;2.90;1.97;;;;;;;3.62;61.04;99282.88;5119547;28;20231;-79
2021/03/22 07:22:34;;;;;;;4.80;2.27;;;;;;;3.79;61.97;99275.53;5101404;22;20236;-79
2021/03/22 07:25:51;;;;;;;3.73;1.97;;;;;;;3.95;61.99;99292.06;5010971;28;20277;-79
2021/03/22 07:29:38;;;;;;;3.30;1.90;;;;;;;3.94;60.62;99294.91;5194410;22;20212;-79
2021/03/22 07:33:17;;;;;;;2.03;1.67;;;;;;;4.01;61.22;99287.03;5083775;28;20184;-79
2021/03/22 07:36:53;;;;;;;4.30;1.97;;;;;;;4.09;60.58;99297.53;5100453;22;20213;-79
2021/03/22 07:40:43;;;;;;;4.60;2.20;;;;;;;4.32;60.69;99283.13;5082914;22;20231;-79
2021/03/22 07:45:03;;;;;;;2.97;1.40;;;;;;;4.26;55.83;99306.91;5070644;28;20236;-79
2021/03/22 07:49:16;;;;;;;2.23;1.30;;;;;;;4.32;55.93;99296.38;4991320;28;20231;-79
2021/03/22 07:53:08;;;;;;;1.80;1.30;;;;;;;4.34;55.37;99281.06;5103825;22;20223;-79
2021/03/22 07:56:33;;;;;;;3.17;1.37;;;;;;;4.38;56.18;99276.25;5079358;22;20878;-78
2021/03/22 08:00:19;;;;;;;2.33;1.50;;;;;;;4.64;56.15;99295.06;5135558;28;20179;-79
2021/03/22 08:03:39;;;;;;;2.17;1.60;;;;;;;4.68;56.29;99298.16;5132273;28;20253;-78
2021/03/22 08:07:36;;;;;;;2.07;1.33;;;;;;;4.65;54.68;99302.03;5107753;22;20299;-79
2021/03/22 08:15:28;;;;;;;3.47;1.60;;;;;;;4.88;53.82;99307.94;5024995;23;20233;-79
2021/03/22 08:19:00;;;;;;;2.03;1.50;;;;;;;4.91;51.79;99303.25;5070691;23;20205;-79
2021/03/22 08:23:05;;;;;;;1.80;1.20;;;;;;;5.02;50.49;99302.75;5116785;22;20238;-79
2021/03/22 08:26:44;;;;;;;2.70;1.40;;;;;;;5.13;50.43;99286.31;5125757;23;20227;-79
2021/03/22 08:30:37;;;;;;;2.20;1.20;;;;;;;5.64;48.18;99324.88;5187303;23;20254;-78
2021/03/22 08:34:35;;;;;;;3.60;1.20;;;;;;;5.85;47.34;99328.44;5095697;28;20245;-79
2021/03/22 08:38:07;;;;;;;3.43;1.53;;;;;;;6.37;48.13;99309.28;5096854;28;20232;-79
2021/03/22 08:41:26;;;;;;;1.63;1.20;;;;;;;6.50;46.86;99314.63;5078024;28;20249;-79
2021/03/22 08:44:34;;;;;;;3.33;1.40;;;;;;;6.63;46.04;99319.97;5063937;28;20226;-78
2021/03/22 08:47:45;;;;;;;2.23;1.17;;;;;;;6.74;44.96;99319.38;5106241;23;20204;-79
2021/03/22 08:51:31;;;;;;;3.23;1.20;;;;;;;6.44;45.86;99323.44;5075585;28;20190;-79
2021/03/22 08:55:22;;;;;;;2.27;1.00;;;;;;;6.52;45.63;99328.56;5073637;22;20239;-79
2021/03/22 08:59:13;;;;;;;1.50;0.90;;;;;;;6.32;43.99;99327.66;5065364;28;20209;-78
2021/03/22 09:03:02;;;;;;;2.63;1.23;;;;;;;6.34;45.10;99323.00;5074731;28;20289;-79
2021/03/22 09:06:26;;;;;;;1.63;1.10;;;;;;;6.47;45.03;99334.50;5074597;28;20197;-80
2021/03/22 09:10:00;;;;;;;2.77;1.03;;;;;;;6.07;42.64;99311.41;5074130;28;20221;-79
2021/03/22 09:13:31;;;;;;;1.53;0.67;;;;;;;6.20;41.68;99324.78;5083052;22;20186;-79
2021/03/22 09:17:08;;;;;;;1.97;0.80;;;;;;;6.56;40.87;99321.81;5050305;28;20226;-79
2021/03/22 09:20:46;;;;;;;1.77;0.93;;;;;;;6.61;42.95;99322.84;5070489;22;20300;-79
2021/03/22 09:25:09;;;;;;;2.13;0.90;;;;;;;6.61;42.81;99348.66;5095775;22;20691;-79
2021/03/22 09:28:39;;;;;;;3.73;1.07;;;;;;;6.38;41.10;99329.53;5078022;22;20711;-79
2021/03/22 09:31:50;;;;;;;2.73;1.10;;;;;;;6.44;42.45;99336.75;5081420;22;20245;-79
2021/03/22 09:36:00;;;;;;;2.07;1.00;;;;;;;6.17;41.96;99330.47;5071795;22;20252;-79
2021/03/22 09:39:47;;;;;;;2.53;0.70;;;;;;;6.40;41.16;99324.81;5084188;22;20198;-79
2021/03/22 09:42:55;;;;;;;1.10;0.60;;;;;;;6.82;39.41;99294.41;5049107;28;20221;-79
2021/03/22 09:46:10;;;;;;;1.83;0.83;;;;;;;6.39;40.07;99316.03;5049129;28;20304;-79
2021/03/22 09:49:29;;;;;;;2.10;1.13;;;;;;;6.63;40.92;99336.78;5087028;22;20286;-78
2021/03/22 09:53:32;;;;;;;2.83;1.00;;;;;;;6.23;41.94;99342.16;5032485;28;20237;-79
2021/03/22 09:57:19;;;;;;;2.97;0.80;;;;;;;6.14;42.05;99352.16;5072236;28;20237;-79
2021/03/22 10:01:19;;;;;;;2.43;1.10;;;;;;;6.44;44.36;99342.06;5066521;23;20243;-79
2021/03/22 10:04:59;;;;;;;2.27;0.90;;;;;;;6.44;42.27;99332.22;5081321;22;20227;-79
2021/03/22 10:08:58;;;;;;;1.17;0.80;;;;;;;6.50;40.66;99334.06;5063010;22;20221;-79
2021/03/22 10:12:58;;;;;;;2.13;0.90;;;;;;;6.30;41.72;99327.06;5092906;22;21339;-79
2021/03/22 10:16:46;;;;;;;2.03;1.10;;;;;;;6.61;42.08;99348.66;5082035;22;20213;-79
2021/03/22 10:20:27;;;;;;;1.57;1.10;;;;;;;6.07;44.08;99353.94;5112647;22;20202;-79
2021/03/22 10:23:53;;;;;;;2.07;1.30;;;;;;;6.09;45.06;99359.91;5063297;22;20244;-79
2021/03/22 10:27:51;;;;;;;2.27;1.27;;;;;;;6.53;44.06;99339.00;5149752;23;20221;-79
2021/03/22 10:31:29;;;;;;;3.70;1.03;;;;;;;6.98;40.58;99340.13;5066439;28;20226;-78
2021/03/22 10:34:49;;;;;;;2.27;1.03;;;;;;;6.99;41.90;99332.94;5167975;22;20231;-78
2021/03/22 10:38:21;;;;;;;1.60;1.20;;;;;;;6.62;43.42;99311.16;5078229;22;20242;-78
2021/03/22 10:41:54;;;;;;;2.10;1.03;;;;;;;6.52;43.47;99339.22;5074682;28;20261;-78
2021/03/22 10:45:05;;;;;;;2.30;1.13;;;;;;;6.84;43.14;99333.13;5167351;23;20233;-79
2021/03/22 10:48:29;;;;;;;1.43;0.70;;;;;;;7.00;38.48;99346.03;5088357;22;20225;-78
2021/03/22 10:51:56;;;;;;;1.20;0.60;;;;;;;7.30;37.47;99346.50;5087871;22;20230;-79
2021/03/22 10:55:15;;;;;;;1.73;0.80;;;;;;;7.03;38.36;99303.03;5080890;22;20253;-79
2021/03/22 10:59:20;;;;;;;2.43;1.10;;;;;;;6.91;39.04;99325.13;5074218;28;20213;-79
2021/03/22 11:02:54;;;;;;;2.20;1.10;;;;;;;6.54;41.50;99335.31;5179854;22;20224;-79
2021/03/22 11:06:32;;;;;;;1.83;1.33;;;;;;;6.78;42.11;99333.13;5086629;23;20233;-79
2021/03/22 11:09:33;;;;;;;3.57;1.60;;;;;;;6.72;43.88;99326.75;5082465;22;20230;-79
2021/03/22 11:12:58;;;;;;;2.20;1.20;;;;;;;6.63;42.04;99285.38;5080338;22;20229;-79
2021/03/22 11:16:59;;;;;;;2.23;1.40;;;;;;;8.19;40.43;99332.56;5080566;22;20229;-79
2021/03/22 11:20:37;;;;;;;2.07;1.20;;;;;;;8.52;37.50;99340.47;5081204;22;20225;-79
2021/03/22 11:24:04;;;;;;;2.20;0.90;;;;;;;8.29;36.98;99344.47;5074422;28;20248;-79
2021/03/22 11:27:27;;;;;;;2.53;1.00;;;;;;;8.12;35.88;99313.91;5045884;28;20268;-79
2021/03/22 11:31:10;;;;;;;2.47;1.30;;;;;;;7.94;36.79;99330.59;5165986;22;20195;-79
2021/03/22 11:35:00;;;;;;;1.70;1.30;;;;;;;7.77;38.40;99316.06;5097744;22;20217;-78
2021/03/22 11:38:35;;;;;;;2.13;1.53;;;;;;;7.66;38.40;99307.88;5257640;22;20224;-79
2021/03/22 11:42:37;;;;;;;4.80;1.20;;;;;;;7.62;36.02;99307.50;5250850;22;20231;-78
2021/03/22 11:45:48;;;;;;;2.67;1.20;;;;;;;7.79;36.01;99306.00;5070064;22;20229;-78
2021/03/22 11:48:45;;;;;;;1.60;1.03;;;;;;;7.62;35.36;99307.50;5079508;22;20312;-79
2021/03/22 11:52:10;;;;;;;1.10;0.97;;;;;;;7.49;34.44;99303.00;5071897;28;20182;-79
2021/03/22 11:55:42;;;;;;;2.70;1.17;;;;;;;7.85;35.32;99299.84;5068987;22;20225;-78
2021/03/22 11:59:05;;;;;;;1.87;0.90;;;;;;;7.21;33.85;99301.59;5052773;28;20232;-78
2021/03/22 12:03:01;;;;;;;1.57;0.87;;;;;;;6.98;34.41;99291.34;5156295;22;20229;-78
2021/03/22 12:06:14;;;;;;;2.27;1.20;;;;;;;7.18;36.15;99294.03;5071683;28;20255;-79
2021/03/22 12:09:44;;;;;;;3.20;1.20;;;;;;;7.79;34.84;99303.34;5127411;22;20210;-78
2021/03/22 12:13:04;;;;;;;1.83;1.20;;;;;;;7.99;33.64;99271.25;5072191;28;20215;-80
2021/03/22 12:16:10;;;;;;;2.87;1.33;;;;;;;7.83;34.58;99285.09;5072057;28;20233;-78
2021/03/22 12:19:17;;;;;;;2.67;1.47;;;;;;;7.88;34.38;99288.78;5052190;22;20237;-79
2021/03/22 12:23:07;;;;;;;3.70;1.20;;;;;;;7.80;35.50;99278.31;5062675;23;20225;-79
2021/03/22 12:26:20;;;;;;;2.63;1.33;;;;;;;7.73;36.70;99290.03;5088553;28;20227;-78
2021/03/22 12:29:17;;;;;;;3.13;0.97;;;;;;;7.29;37.30;99291.53;5090936;22;20229;-79
2021/03/22 12:32:42;;;;;;;1.13;0.97;;;;;;;7.16;37.95;99307.53;5086562;22;20217;-78
2021/03/22 12:36:04;;;;;;;2.83;1.30;;;;;;;7.24;39.48;99303.84;5172231;22;20232;-79
2021/03/22 12:39:41;;;;;;;2.03;1.20;;;;;;;7.47;39.31;99306.88;5068373;23;20268;-79
2021/03/22 12:42:58;;;;;;;2.70;1.30;;;;;;;7.80;38.39;99304.97;5095407;22;20241;-79
2021/03/22 12:46:33;;;;;;;2.37;1.40;;;;;;;7.35;38.17;99312.03;5187147;22;20233;-80
2021/03/22 12:49:55;;;;;;;5.00;1.37;;;;;;;7.29;38.25;99291.53;5069047;28;20292;-81
2021/03/22 12:56:46;;;;;;;2.13;1.33;;;;;;;7.54;37.19;99302.38;5084362;22;20291;-80
2021/03/22 12:59:50;;;;;;;2.37;1.60;;;;;;;7.75;37.36;99301.28;5049109;28;20234;-80
2021/03/22 13:03:34;;;;;;;3.00;1.40;;;;;;;7.47;37.20;99290.91;5032755;28;20198;-80
2021/03/22 13:06:43;;;;;;;4.40;1.60;;;;;;;7.07;37.55;99258.97;5051547;28;20221;-81
2021/03/22 13:18:31;;;;;;;2.83;1.60;;;;;;;7.98;36.40;99273.13;5089655;22;20244;-79
2021/03/22 13:25:20;;;;;;;1.87;1.30;;;;;;;8.30;34.21;99275.91;5032723;28;20233;-80
2021/03/22 13:28:44;;;;;;;2.00;1.43;;;;;;;9.05;33.58;99287.53;5022105;28;20728;-80
2021/03/22 13:32:34;;;;;;;4.43;1.40;;;;;;;8.79;33.62;99292.00;5040571;28;20214;-80
2021/03/22 13:36:03;;;;;;;4.20;1.70;;;;;;;8.51;33.33;99286.25;4991028;28;20220;-80
2021/03/22 13:39:23;;;;;;;4.50;1.50;;;;;;;8.52;33.97;99295.06;5063890;22;20222;-78
2021/03/22 13:42:37;;;;;;;3.47;2.10;;;;;;;9.01;32.82;99284.44;5051943;28;20226;-80
2021/03/22 13:45:51;;;;;;;2.73;1.67;;;;;;;9.27;33.42;99286.91;5054109;28;20213;-80
2021/03/22 13:49:15;;;;;;;3.33;1.53;;;;;;;8.83;33.06;99247.81;5036299;28;20230;-80
2021/03/22 13:53:14;;;;;;;3.20;1.83;;;;;;;7.90;37.12;99294.69;5067149;23;20217;-80
2021/03/22 14:00:35;;;;;;;3.33;1.70;;;;;;;7.00;41.87;99305.28;5053417;28;20229;-80
2021/03/22 14:04:04;;;;;;;4.33;1.47;;;;;;;7.02;39.56;99321.88;5055638;28;20217;-80
2021/03/22 14:07:27;;;;;;;2.43;1.07;;;;;;;6.81;39.10;99319.41;5078956;23;20251;-80
2021/03/22 14:11:19;;;;;;;3.37;1.50;;;;;;;6.91;39.79;99306.50;5094770;28;20264;-80
2021/03/22 14:14:20;;;;;;;3.87;1.50;;;;;;;7.00;39.86;99306.09;5103770;22;20230;-80
2021/03/22 14:17:47;;;;;;;4.77;1.80;;;;;;;7.21;39.64;99277.63;5066087;22;20228;-80
2021/03/22 14:21:26;;;;;;;4.03;2.07;;;;;;;7.27;39.12;99300.78;5091060;22;20242;-78
2021/03/22 14:25:03;;;;;;;2.90;2.00;;;;;;;7.22;38.56;99293.41;5019058;28;20230;-80
2021/03/22 14:28:25;;;;;;;3.83;2.00;;;;;;;7.24;38.57;99278.00;5045067;23;20269;-80
2021/03/22 14:31:33;;;;;;;6.87;2.20;;;;;;;7.41;39.04;99286.41;5058159;28;20217;-80
2021/03/22 14:34:47;;;;;;;5.37;1.63;;;;;;;7.31;37.17;99270.84;5089440;28;20220;-82
2021/03/22 14:37:45;;;;;;;3.00;1.90;;;;;;;7.63;36.02;99287.81;5033492;28;20235;-82
2021/03/22 14:40:36;;;;;;;3.80;1.70;;;;;;;7.64;36.28;99297.44;5078790;28;20224;-82
2021/03/22 14:43:23;;;;;;;2.67;1.60;;;;;;;7.54;36.58;99281.06;5053753;28;20221;-82
2021/03/22 14:46:04;;;;;;;3.00;1.73;;;;;;;7.46;36.42;99284.78;5043505;28;20531;-82
2021/03/22 14:49:09;;;;;;;3.20;2.03;;;;;;;7.52;36.71;99291.91;5038182;28;20224;-84
2021/03/22 14:52:03;;;;;;;2.60;1.73;;;;;;;7.41;37.45;99302.41;5046140;28;20220;-83
2021/03/22 14:55:17;;;;;;;6.10;2.20;;;;;;;6.58;40.91;99285.97;5495902;23;20225;-82
2021/03/22 15:02:02;;;;;;;4.87;2.43;;;;;;;5.53;52.68;99336.03;5073134;23;20233;-81
2021/03/22 15:04:54;;;;;;;4.73;2.33;;;;;;;5.19;54.49;99323.53;5059391;28;20244;-82
2021/03/22 15:08:13;;;;;;;3.97;2.10;;;;;;;5.24;54.00;99338.88;5065161;22;20216;-79
2021/03/22 15:11:46;;;;;;;3.83;2.33;;;;;;;5.19;55.15;99338.63;5075961;28;20249;-79
2021/03/22 15:15:49;;;;;;;2.63;1.80;;;;;;;4.78;55.26;99349.91;5083753;22;20285;-80
2021/03/22 15:19:05;;;;;;;3.17;1.60;;;;;;;4.79;55.28;99346.25;5091432;22;20224;-81
2021/03/22 15:21:48;;;;;;;3.43;1.50;;;;;;;4.81;54.05;99341.56;5056827;28;20225;-81
2021/03/22 15:24:31;;;;;;;5.20;1.80;;;;;;;5.28;52.71;99342.78;5056002;28;20225;-82
2021/03/22 15:27:11;;;;;;;5.97;1.80;;;;;;;5.54;50.58;99310.28;5043047;28;20225;-81
2021/03/22 15:29:51;;;;;;;9.03;2.27;;;;;;;5.92;49.69;99340.00;5029447;28;20237;-81
2021/03/22 15:32:36;;;;;;;5.13;1.27;;;;;;;6.10;47.45;99356.25;5036559;28;20632;-82
2021/03/22 15:36:04;;;;;;;5.07;1.80;;;;;;;5.92;46.84;99383.34;5046421;22;20233;-79
2021/03/22 15:39:39;;;;;;;8.63;2.00;;;;;;;5.24;53.33;99399.97;5189348;22;20276;-78
2021/03/22 15:47:29;;;;;;;4.33;2.30;;;;;;;3.69;66.68;99403.00;5077857;28;20238;-78
2021/03/22 15:51:04;;;;;;;3.73;2.37;;;;;;;3.75;68.25;99401.44;5091248;22;20236;-78
2021/03/22 15:54:34;;;;;;;5.03;1.93;;;;;;;3.24;68.27;99348.31;5097789;22;20204;-79
2021/03/22 15:58:24;;;;;;;2.63;1.90;;;;;;;3.66;66.63;99389.28;5091376;22;20233;-79
2021/03/22 16:02:15;;;;;;;18.63;10.17;;;;;;;3.99;66.07;99401.19;5068964;22;20259;-79
2021/03/22 16:05:12;;;;;;;16.23;12.20;;;;;;;3.75;66.51;99389.03;5081831;22;20301;-79
2021/03/22 16:08:35;;;;;;;5.20;3.97;;;;;;;3.65;68.30;99438.81;5110470;22;20221;-79
2021/03/22 16:12:00;;;;;;;4.53;2.70;;;;;;;2.89;75.73;99468.03;5055277;28;20266;-79
2021/03/22 16:14:47;;;;;;;5.20;3.43;;;;;;;2.44;80.50;99464.28;5074824;28;20205;-84
2021/03/22 16:17:26;;;;;;;6.37;3.10;;;;;;;2.24;81.94;99441.88;5085519;28;20212;-80
2021/03/22 16:21:40;;;;;;;7.17;4.63;;;;;;;2.31;82.07;99444.66;5132917;22;20236;-80
2021/03/22 16:25:44;;;;;;;12.40;6.23;;;;;;;2.41;78.68;99448.75;5075355;28;20211;-78
2021/03/22 16:29:13;;;;;;;5.13;3.93;;;;;;;2.48;77.53;99454.16;5078377;22;20236;-79
2021/03/22 16:33:10;;;;;;;9.90;6.70;;;;;;;2.45;76.98;99462.44;5109342;22;20280;-80
2021/03/22 16:36:49;;;;;;;8.90;5.30;;;;;;;2.38;76.11;99475.53;5076191;28;20213;-79
2021/03/22 16:40:24;;;;;;;19.03;17.03;;;;;;;2.33;76.27;99475.22;5069407;28;20227;-81
2021/03/22 16:43:04;;;;;;;5.43;3.30;;;;;;;2.21;75.45;99482.69;5053310;28;20170;-80
2021/03/22 16:45:42;;;;;;;4.67;3.10;;;;;;;2.32;74.24;99494.72;5072562;28;20280;-80
2021/03/22 16:48:50;;;;;;;4.30;3.47;;;;;;;2.15;77.30;99503.69;5070999;28;20221;-79
2021/03/22 16:51:26;;;;;;;6.73;4.40;;;;;;;1.88;80.37;99509.34;5203863;22;20244;-87
2021/03/22 16:54:16;;;;;;;5.50;4.57;;;;;;;1.67;81.78;99513.34;5059439;28;20221;-94
2021/03/22 16:57:00;;;;;;;5.63;5.10;;;;;;;1.23;83.64;99485.59;5060841;28;20221;-90
2021/03/22 16:59:42;;;;;;;6.33;5.37;;;;;;;1.50;83.72;99521.41;5060343;28;20248;-88
2021/03/22 17:02:24;;;;;;;6.60;6.00;;;;;;;1.54;82.43;99534.09;5064160;28;20225;-88
2021/03/22 17:05:13;;;;;;;6.20;5.47;;;;;;;1.47;81.81;99529.66;5069411;28;20225;-92
2021/03/22 17:08:07;;;;;;;7.43;5.87;;;;;;;1.40;82.70;99520.75;5093339;28;20229;-80
2021/03/22 17:11:24;;;;;;;6.63;6.00;;;;;;;1.41;83.63;99543.50;5281211;22;20288;-81
2021/03/22 17:14:56;;;;;;;7.60;5.33;;;;;;;1.55;83.54;99563.97;5047759;28;20220;-81
2021/03/22 17:17:56;;;;;;;9.10;7.00;;;;;;;1.51;83.52;99573.22;5116354;22;20240;-81
2021/03/22 17:21:09;;;;;;;8.20;5.70;;;;;;;1.52;82.69;99562.50;5028238;28;20248;-79
2021/03/22 17:23:57;;;;;;;6.90;5.57;;;;;;;1.53;81.38;99563.34;5072416;28;20227;-80
2021/03/22 17:27:03;;;;;;;7.50;5.37;;;;;;;1.74;81.19;99567.13;5076976;22;20289;-80
2021/03/22 17:30:11;;;;;;;7.37;5.40;;;;;;;1.82;80.10;99573.44;5148231;23;20205;-80
2021/03/22 17:32:59;;;;;;;5.10;4.33;;;;;;;1.68;80.11;99573.06;5074535;28;20284;-78
2021/03/22 17:35:57;;;;;;;5.80;3.40;;;;;;;1.57;79.37;99568.13;5056283;28;20226;-80
2021/03/22 17:38:54;;;;;;;4.37;2.93;;;;;;;1.57;78.22;99572.59;5050616;28;20238;-80
2021/03/22 17:41:45;;;;;;;4.73;3.00;;;;;;;1.61;78.89;99590.56;5062797;28;20221;-80
2021/03/22 17:44:32;;;;;;;4.73;3.53;;;;;;;1.57;78.61;99599.00;5072472;28;20221;-80
2021/03/22 17:47:27;;;;;;;5.13;3.33;;;;;;;1.56;79.44;99599.97;5073739;22;20225;-82
2021/03/22 17:50:17;;;;;;;4.67;3.27;;;;;;;1.44;79.08;99581.00;5052949;28;20226;-82
2021/03/22 17:53:18;;;;;;;4.83;3.70;;;;;;;1.53;78.60;99602.94;5072047;28;20315;-80
2021/03/22 17:56:31;;;;;;;5.73;3.67;;;;;;;1.62;79.09;99617.81;4506324;27;18435504;-81
2021/03/22 18:00:35;;;;;;;6.67;4.63;;;;;;;1.39;78.78;99600.94;5295773;22;20235;-80
2021/03/22 18:04:02;;;;;;;5.10;3.90;;;;;;;1.32;78.31;99604.22;5013766;22;20231;-81
2021/03/22 18:12:12;;;;;;;5.37;3.60;;;;;;;1.54;78.16;99645.00;5073632;28;20236;-81
2021/03/22 18:15:58;;;;;;;4.73;3.30;;;;;;;1.51;77.55;99648.00;5062380;28;20239;-81
2021/03/22 18:19:59;;;;;;;4.33;3.57;;;;;;;1.42;78.12;99658.69;5070783;23;20288;-79
2021/03/22 18:27:19;;;;;;;4.67;3.27;;;;;;;1.32;77.36;99667.56;5084093;23;20214;-81
2021/03/22 18:30:40;;;;;;;4.83;3.20;;;;;;;1.28;77.23;99660.94;4977287;28;20180;-80
2021/03/22 18:34:36;;;;;;;5.10;3.30;;;;;;;1.19;77.64;99671.63;5079986;23;20196;-80
2021/03/22 18:42:08;;;;;;;5.10;3.27;;;;;;;0.80;76.87;99627.25;5246509;23;20254;-79
2021/03/22 18:45:57;;;;;;;6.67;4.40;;;;;;;1.20;76.83;99689.97;5013306;28;20263;-80
2021/03/22 18:49:24;;;;;;;4.70;3.43;;;;;;;1.24;77.04;99695.75;5036802;23;20247;-78
2021/03/22 18:56:04;;;;;;;10.23;3.80;;;;;;;1.31;76.53;99708.13;5157569;23;20249;-81
2021/03/22 18:59:49;;;;;;;6.53;4.03;;;;;;;1.45;75.72;99706.72;5089549;23;20285;-80
2021/03/22 19:04:03;;;;;;;5.20;3.97;;;;;;;1.60;74.31;99720.13;5089047;23;20239;-80
2021/03/22 19:07:16;;;;;;;4.40;3.37;;;;;;;1.50;74.02;99691.22;5052724;28;20225;-81